createdAt,value
2018-10-15T00:00:54.928Z,10.20
2018-10-15T00:03:23.391Z,10.30
2018-10-15T00:05:51.872Z,10.50
2018-10-15T00:08:20.331Z,10.50
2018-10-15T00:10:48.799Z,10.80
2018-10-15T00:13:17.283Z,10.60
2018-10-15T00:15:45.781Z,10.90
2018-10-15T00:18:14.247Z,10.90
2018-10-15T00:20:42.721Z,10.90
2018-10-15T00:23:11.193Z,11.10
2018-10-15T00:25:39.673Z,10.80
2018-10-15T00:28:08.174Z,10.80
2018-10-15T00:33:05.102Z,10.80
2018-10-15T00:35:33.544Z,10.90
2018-10-15T00:38:02.008Z,10.70
2018-10-15T00:40:30.442Z,10.80
2018-10-15T00:42:58.894Z,10.70
2018-10-15T00:45:27.362Z,10.60
2018-10-15T00:47:55.834Z,10.60
2018-10-15T00:50:24.309Z,10.60
2018-10-15T00:52:52.763Z,10.70
2018-10-15T00:55:21.214Z,10.90
2018-10-15T00:57:49.662Z,10.50
2018-10-15T01:00:18.223Z,10.50
2018-10-15T01:02:47.210Z,10.60
2018-10-15T01:05:15.698Z,10.40
2018-10-15T01:07:44.472Z,10.30
2018-10-15T01:10:13.745Z,10.20
2018-10-15T01:12:42.429Z,10.20
2018-10-15T01:15:12.489Z,10.40
2018-10-15T01:17:40.932Z,10.20
2018-10-15T01:20:11.277Z,10.30
2018-10-15T01:22:39.852Z,10.20
2018-10-15T01:25:09.266Z,10.20
2018-10-15T01:27:37.759Z,10.10
2018-10-15T01:30:07.179Z,9.90
2018-10-15T01:32:35.639Z,9.80
2018-10-15T01:35:04.147Z,9.80
2018-10-15T01:37:32.612Z,9.90
2018-10-15T01:40:01.081Z,9.80
2018-10-15T01:42:29.539Z,9.90
2018-10-15T01:44:58.039Z,9.60
2018-10-15T01:47:26.477Z,9.70
2018-10-15T01:49:54.934Z,9.90
2018-10-15T01:52:23.383Z,9.60
2018-10-15T01:54:51.858Z,9.80
2018-10-15T01:57:20.335Z,9.70
2018-10-15T01:59:48.819Z,9.50
2018-10-15T02:02:17.283Z,9.80
2018-10-15T02:04:45.735Z,9.80
2018-10-15T02:07:14.211Z,9.80
2018-10-15T02:09:42.679Z,9.40
2018-10-15T02:12:11.239Z,9.80
2018-10-15T02:14:39.762Z,10.10
2018-10-15T02:17:08.252Z,9.90
2018-10-15T02:19:36.769Z,9.90
2018-10-15T02:22:05.656Z,9.90
2018-10-15T02:24:34.120Z,9.80
2018-10-15T02:27:02.601Z,9.60
2018-10-15T02:29:31.102Z,9.70
2018-10-15T02:31:59.578Z,9.60
2018-10-15T02:34:28.022Z,9.50
2018-10-15T02:36:56.481Z,9.70
2018-10-15T02:39:24.917Z,10.10
2018-10-15T02:41:53.353Z,10.00
2018-10-15T02:44:21.787Z,9.60
2018-10-15T02:46:50.263Z,9.60
2018-10-15T02:49:18.776Z,9.70
2018-10-15T02:51:47.284Z,9.70
2018-10-15T02:56:43.892Z,9.60
2018-10-15T02:59:12.355Z,9.70
2018-10-15T03:01:40.822Z,9.70
2018-10-15T03:04:09.318Z,9.80
2018-10-15T03:06:37.779Z,9.70
2018-10-15T03:09:08.432Z,9.80
2018-10-15T03:11:36.888Z,9.80
2018-10-15T03:14:05.866Z,9.70
2018-10-15T03:16:34.383Z,9.70
2018-10-15T03:19:02.857Z,9.70
2018-10-15T03:21:31.321Z,9.70
2018-10-15T03:23:59.788Z,9.70
2018-10-15T03:26:28.342Z,9.70
2018-10-15T03:28:56.796Z,9.70
2018-10-15T03:31:25.250Z,9.70
2018-10-15T03:33:53.737Z,9.80
2018-10-15T03:36:22.166Z,9.70
2018-10-15T03:38:50.653Z,9.60
2018-10-15T03:41:19.116Z,9.40
2018-10-15T03:43:47.605Z,9.60
2018-10-15T03:46:16.071Z,9.60
2018-10-15T03:48:44.579Z,9.30
2018-10-15T03:51:13.044Z,9.40
2018-10-15T03:53:41.498Z,9.50
2018-10-15T03:56:09.977Z,9.40
2018-10-15T03:58:38.460Z,9.30
2018-10-15T04:01:06.914Z,9.30
2018-10-15T04:03:35.385Z,9.20
2018-10-15T04:06:04.057Z,9.30
2018-10-15T04:08:32.619Z,9.30
2018-10-15T04:11:01.033Z,9.30
2018-10-15T04:13:29.559Z,9.40
2018-10-15T04:18:26.216Z,9.20
2018-10-15T04:20:54.700Z,9.40
2018-10-15T04:23:23.225Z,9.20
2018-10-15T04:25:51.627Z,9.20
2018-10-15T04:28:20.197Z,9.20
2018-10-15T04:30:48.699Z,9.10
2018-10-15T04:33:17.158Z,9.30
2018-10-15T04:35:45.641Z,9.10
2018-10-15T04:38:14.101Z,9.20
2018-10-15T04:40:42.580Z,9.10
2018-10-15T04:43:11.055Z,9.10
2018-10-15T04:45:39.515Z,9.20
2018-10-15T04:48:08.015Z,9.20
2018-10-15T04:50:36.495Z,9.30
2018-10-15T04:53:05.089Z,9.50
2018-10-15T04:55:33.574Z,9.50
2018-10-15T04:58:02.059Z,9.50
2018-10-15T05:00:30.597Z,9.70
2018-10-15T05:02:59.111Z,9.50
2018-10-15T05:07:55.862Z,9.50
2018-10-15T05:10:24.449Z,9.10
2018-10-15T05:12:53.015Z,9.40
2018-10-15T05:15:21.560Z,9.30
2018-10-15T05:17:50.048Z,9.40
2018-10-15T05:20:18.576Z,9.30
2018-10-15T05:22:47.160Z,9.20
2018-10-15T05:25:16.011Z,9.30
2018-10-15T05:27:44.552Z,9.50
2018-10-15T05:32:41.591Z,9.20
2018-10-15T05:35:11.450Z,9.20
2018-10-15T05:37:40.334Z,9.20
2018-10-15T05:40:09.318Z,9.20
2018-10-15T05:42:38.389Z,9.20
2018-10-15T05:45:07.924Z,9.20
2018-10-15T05:47:36.453Z,9.30
2018-10-15T05:50:05.606Z,9.20
2018-10-15T05:52:34.134Z,9.20
2018-10-15T05:55:02.657Z,9.20
2018-10-15T05:57:31.175Z,9.20
2018-10-15T05:59:59.755Z,9.20
2018-10-15T06:02:28.286Z,9.10
2018-10-15T06:04:57.072Z,9.20
2018-10-15T06:07:25.582Z,9.10
2018-10-15T06:09:54.116Z,9.10
2018-10-15T06:12:22.751Z,8.80
2018-10-15T06:14:51.166Z,9.10
2018-10-15T06:17:19.675Z,9.10
2018-10-15T06:19:48.571Z,9.40
2018-10-15T06:22:17.120Z,9.30
2018-10-15T06:24:45.649Z,9.30
2018-10-15T06:27:14.173Z,9.40
2018-10-15T06:32:13.949Z,9.70
2018-10-15T06:34:42.444Z,10.10
2018-10-15T06:37:10.997Z,9.60
2018-10-15T06:39:39.484Z,9.60
2018-10-15T06:42:08.048Z,9.70
2018-10-15T06:44:36.569Z,9.90
2018-10-15T06:47:07.202Z,9.90
2018-10-15T06:49:35.669Z,10.20
2018-10-15T06:52:04.581Z,10.20
2018-10-15T06:54:33.407Z,10.30
2018-10-15T06:57:01.958Z,10.40
2018-10-15T06:59:30.501Z,10.50
2018-10-15T07:01:59.064Z,10.50
2018-10-15T07:04:27.603Z,10.50
2018-10-15T07:06:56.148Z,10.60
2018-10-15T07:09:24.690Z,10.60
2018-10-15T07:11:53.196Z,10.60
2018-10-15T07:14:21.786Z,10.60
2018-10-15T07:16:50.698Z,10.60
2018-10-15T07:19:19.283Z,10.90
2018-10-15T07:21:47.770Z,10.90
2018-10-15T07:24:16.314Z,11.20
2018-10-15T07:26:44.820Z,11.20
2018-10-15T07:29:13.336Z,12.00
2018-10-15T07:31:41.882Z,11.50
2018-10-15T07:34:10.541Z,11.70
2018-10-15T07:36:39.200Z,12.10
2018-10-15T07:41:36.639Z,12.70
2018-10-15T07:44:05.226Z,12.50
2018-10-15T07:46:33.787Z,12.90
2018-10-15T07:49:02.350Z,12.70
2018-10-15T07:51:30.875Z,12.80
2018-10-15T07:53:59.406Z,12.90
2018-10-15T07:56:27.916Z,13.00
2018-10-15T07:58:56.549Z,13.00
2018-10-15T08:01:25.080Z,13.10
2018-10-15T08:04:00.208Z,13.20
2018-10-15T08:06:28.772Z,13.20
2018-10-15T08:08:57.362Z,13.30
2018-10-15T08:11:25.891Z,13.50
2018-10-15T08:13:54.415Z,13.70
2018-10-15T08:16:23.007Z,13.90
2018-10-15T08:18:51.493Z,14.30
2018-10-15T08:21:20.031Z,15.10
2018-10-15T08:23:48.569Z,15.30
2018-10-15T08:26:17.191Z,15.90
2018-10-15T08:28:45.640Z,16.60
2018-10-15T08:31:14.185Z,16.60
2018-10-15T08:33:42.724Z,16.80
2018-10-15T08:36:11.242Z,17.50
2018-10-15T08:38:39.775Z,17.50
2018-10-15T08:41:08.371Z,18.10
2018-10-15T08:43:36.861Z,17.90
2018-10-15T08:46:06.160Z,18.00
2018-10-15T08:48:34.703Z,17.90
2018-10-15T08:51:03.292Z,18.00
2018-10-15T08:53:31.933Z,18.30
2018-10-15T08:56:00.600Z,18.60
2018-10-15T09:03:25.469Z,18.80
2018-10-15T09:05:54.047Z,18.70
2018-10-15T09:08:22.624Z,18.40
2018-10-15T09:10:51.141Z,18.30
2018-10-15T09:13:19.662Z,18.40
2018-10-15T09:15:48.234Z,18.40
2018-10-15T09:18:16.807Z,18.40
2018-10-15T09:20:45.370Z,18.50
2018-10-15T09:23:13.915Z,18.70
2018-10-15T09:25:42.496Z,18.80
2018-10-15T09:28:10.987Z,18.70
2018-10-15T09:30:39.508Z,18.70
2018-10-15T09:33:08.124Z,18.60
2018-10-15T09:35:36.611Z,18.50
2018-10-15T09:38:06.031Z,18.90
2018-10-15T09:40:34.525Z,19.40
2018-10-15T09:43:03.700Z,20.10
2018-10-15T09:45:32.284Z,20.30
2018-10-15T09:48:00.761Z,20.80
2018-10-15T09:50:29.320Z,21.40
2018-10-15T09:52:57.891Z,21.40
2018-10-15T09:55:26.475Z,21.60
2018-10-15T09:57:55.092Z,22.20
2018-10-15T10:00:28.849Z,22.80
2018-10-15T10:02:57.439Z,22.80
2018-10-15T10:05:25.969Z,23.10
2018-10-15T10:07:54.565Z,23.20
2018-10-15T10:10:23.007Z,23.00
2018-10-15T10:12:51.551Z,23.40
2018-10-15T10:15:20.103Z,23.40
2018-10-15T10:17:48.813Z,23.70
2018-10-15T10:20:17.237Z,24.00
2018-10-15T10:22:45.837Z,23.50
2018-10-15T10:25:15.655Z,23.20
2018-10-15T10:27:44.249Z,23.40
2018-10-15T10:30:13.942Z,23.70
2018-10-15T10:32:42.652Z,24.00
2018-10-15T10:36:08.415Z,24.60
2018-10-15T10:38:46.383Z,24.90
2018-10-15T10:41:14.923Z,24.40
2018-10-15T10:43:43.603Z,24.30
2018-10-15T10:46:12.371Z,24.50
2018-10-15T10:48:40.908Z,24.60
2018-10-15T10:51:09.616Z,24.90
2018-10-15T10:53:38.194Z,24.90
2018-10-15T10:56:06.781Z,24.70
2018-10-15T10:58:35.424Z,24.60
2018-10-15T11:01:03.946Z,24.60
2018-10-15T11:03:32.500Z,24.70
2018-10-15T11:06:01.055Z,24.60
2018-10-15T11:08:29.635Z,24.80
2018-10-15T11:10:58.185Z,25.40
2018-10-15T11:13:26.757Z,25.40
2018-10-15T11:15:55.361Z,25.60
2018-10-15T11:18:23.946Z,25.80
2018-10-15T11:20:52.447Z,25.90
2018-10-15T11:23:20.958Z,26.20
2018-10-15T11:25:49.438Z,26.40
2018-10-15T11:28:18.014Z,26.40
2018-10-15T11:30:46.566Z,26.00
2018-10-15T11:33:15.140Z,26.10
2018-10-15T11:35:43.741Z,25.90
2018-10-15T11:38:12.350Z,25.90
2018-10-15T11:40:40.939Z,26.10
2018-10-15T11:43:09.513Z,25.70
2018-10-15T11:45:38.036Z,25.40
2018-10-15T11:48:06.613Z,25.60
2018-10-15T11:50:35.130Z,26.30
2018-10-15T11:53:03.682Z,26.20
2018-10-15T11:55:32.213Z,26.30
2018-10-15T11:58:00.856Z,26.70
2018-10-15T12:00:29.399Z,27.30
2018-10-15T12:02:57.903Z,27.50
2018-10-15T12:05:26.496Z,27.30
2018-10-15T12:07:55.061Z,26.40
2018-10-15T12:10:23.607Z,26.10
2018-10-15T12:12:52.185Z,26.00
2018-10-15T12:15:20.717Z,25.50
2018-10-15T12:17:49.283Z,25.20
2018-10-15T12:20:17.852Z,24.80
2018-10-15T12:22:46.425Z,24.00
2018-10-15T12:25:16.229Z,23.70
2018-10-15T12:27:44.831Z,23.60
2018-10-15T12:30:14.316Z,23.40
2018-10-15T12:32:42.868Z,23.20
2018-10-15T12:35:12.695Z,22.60
2018-10-15T12:37:42.019Z,22.50
2018-10-15T12:40:11.318Z,22.30
2018-10-15T12:42:40.018Z,22.00
2018-10-15T12:45:10.024Z,22.10
2018-10-15T12:47:38.592Z,22.20
2018-10-15T12:50:08.631Z,22.00
2018-10-15T12:52:37.205Z,21.90
2018-10-15T12:55:06.814Z,21.60
2018-10-15T12:57:35.403Z,21.60
2018-10-15T13:00:04.251Z,21.50
2018-10-15T13:02:32.812Z,21.40
2018-10-15T13:05:19.330Z,21.40
2018-10-15T13:07:47.847Z,21.30
2018-10-15T13:10:16.456Z,21.10
2018-10-15T13:12:45.009Z,21.00
2018-10-15T13:15:13.506Z,21.00
2018-10-15T13:17:42.118Z,21.00
2018-10-15T13:20:10.829Z,20.80
2018-10-15T13:22:39.425Z,20.70
2018-10-15T13:25:08.956Z,20.40
2018-10-15T13:27:38.038Z,20.60
2018-10-15T13:30:07.376Z,20.30
2018-10-15T13:32:36.022Z,20.40
2018-10-15T13:35:05.040Z,20.40
2018-10-15T13:37:33.594Z,20.40
2018-10-15T13:40:02.102Z,20.50
2018-10-15T13:42:30.663Z,20.50
2018-10-15T13:44:59.224Z,20.50
2018-10-15T13:47:27.752Z,20.50
2018-10-15T13:49:56.288Z,20.50
2018-10-15T13:52:24.839Z,20.50
2018-10-15T13:54:53.426Z,20.50
2018-10-15T13:57:21.990Z,20.40
2018-10-15T13:59:50.538Z,20.50
2018-10-15T14:02:19.084Z,20.40
2018-10-15T14:04:47.600Z,20.30
2018-10-15T14:07:16.194Z,20.30
2018-10-15T14:09:51.359Z,20.20
2018-10-15T14:12:19.900Z,20.10
2018-10-15T14:14:48.472Z,20.30
2018-10-15T14:17:17.073Z,20.00
2018-10-15T14:19:45.670Z,20.00
2018-10-15T14:22:14.299Z,19.90
2018-10-15T14:24:42.863Z,19.70
2018-10-15T14:27:11.482Z,19.70
2018-10-15T14:29:40.051Z,19.70
2018-10-15T14:32:08.578Z,19.70
2018-10-15T14:34:37.131Z,19.10
2018-10-15T14:37:05.702Z,19.70
2018-10-15T14:39:34.225Z,19.40
2018-10-15T14:42:02.708Z,19.40
2018-10-15T14:44:31.188Z,19.20
2018-10-15T14:46:59.750Z,19.20
2018-10-15T14:49:28.318Z,19.10
2018-10-15T14:51:56.852Z,19.10
2018-10-15T14:56:53.693Z,18.90
2018-10-15T14:59:22.268Z,18.90
2018-10-15T15:01:50.829Z,18.80
2018-10-15T15:04:19.410Z,18.70
2018-10-15T15:06:48.114Z,18.60
2018-10-15T15:09:27.866Z,18.60
2018-10-15T15:14:30.082Z,18.40
2018-10-15T15:16:58.724Z,18.40
2018-10-15T15:19:27.348Z,18.30
2018-10-15T15:21:55.883Z,18.20
2018-10-15T15:26:52.694Z,18.10
2018-10-15T15:29:21.310Z,18.00
2018-10-15T15:31:49.880Z,17.80
2018-10-15T15:34:18.486Z,17.80
2018-10-15T15:36:47.035Z,17.80
2018-10-15T15:39:15.633Z,17.80
2018-10-15T15:41:44.334Z,17.70
2018-10-15T15:44:12.859Z,17.80
2018-10-15T15:46:41.524Z,17.40
2018-10-15T15:49:16.781Z,17.40
2018-10-15T15:51:45.363Z,17.30
2018-10-15T15:54:13.973Z,17.30
2018-10-15T15:56:42.592Z,17.20
2018-10-15T15:59:11.200Z,17.30
2018-10-15T16:01:39.966Z,17.00
2018-10-15T16:04:08.523Z,17.00
2018-10-15T16:09:08.619Z,17.10
2018-10-15T16:11:37.395Z,16.80
2018-10-15T16:14:05.951Z,16.50
2018-10-15T16:16:34.533Z,16.50
2018-10-15T16:19:03.168Z,16.40
2018-10-15T16:21:31.781Z,16.30
2018-10-15T16:24:00.460Z,16.30
2018-10-15T16:26:29.121Z,16.10
2018-10-15T16:28:57.707Z,16.10
2018-10-15T16:31:26.316Z,15.80
2018-10-15T16:33:55.700Z,15.70
2018-10-15T16:36:25.317Z,15.80
2018-10-15T16:38:54.200Z,15.70
2018-10-15T16:41:22.917Z,15.70
2018-10-15T16:43:51.909Z,15.60
2018-10-15T16:46:21.065Z,15.10
2018-10-15T16:48:49.645Z,15.30
2018-10-15T16:51:18.223Z,15.10
2018-10-15T16:53:46.816Z,15.30
2018-10-15T16:56:15.638Z,15.00
2018-10-15T16:58:45.265Z,14.60
2018-10-15T17:01:14.307Z,14.80
2018-10-15T17:03:42.905Z,14.80
2018-10-15T17:06:11.620Z,14.40
2018-10-15T17:08:40.827Z,14.40
2018-10-15T17:11:09.505Z,14.50
2018-10-15T17:13:38.162Z,14.60
2018-10-15T17:18:35.488Z,14.30
2018-10-15T17:21:04.507Z,14.00
2018-10-15T17:23:33.196Z,14.20
2018-10-15T17:26:01.984Z,14.20
2018-10-15T17:30:59.188Z,14.30
2018-10-15T17:35:56.550Z,13.90
2018-10-15T17:38:25.235Z,14.10
2018-10-15T17:40:54.028Z,14.00
2018-10-15T17:43:22.766Z,14.00
2018-10-15T17:45:51.525Z,13.80
2018-10-15T17:48:20.323Z,13.70
2018-10-15T17:50:49.411Z,13.60
2018-10-15T17:53:18.149Z,13.60
2018-10-15T17:55:47.814Z,13.40
2018-10-15T17:58:16.716Z,13.50
2018-10-15T18:00:45.841Z,13.60
2018-10-15T18:03:14.868Z,13.00
2018-10-15T18:08:12.840Z,13.40
2018-10-15T18:13:11.712Z,13.00
2018-10-15T18:15:40.944Z,13.00
2018-10-15T18:18:09.583Z,13.20
2018-10-15T18:23:06.957Z,12.70
2018-10-15T18:25:36.190Z,12.60
2018-10-15T18:28:05.232Z,12.80
2018-10-15T18:30:34.153Z,12.70
2018-10-15T18:35:32.213Z,12.50
2018-10-15T18:38:01.930Z,12.60
2018-10-15T18:40:36.042Z,12.60
2018-10-15T18:43:05.908Z,12.40
2018-10-15T18:50:33.138Z,12.10
2018-10-15T18:53:02.319Z,12.20
2018-10-15T18:55:31.564Z,12.00
2018-10-15T18:58:00.234Z,12.10
2018-10-15T19:00:30.718Z,11.90
2018-10-15T19:03:03.331Z,11.90
2018-10-15T19:08:02.996Z,11.70
2018-10-15T19:10:32.014Z,11.90
2018-10-15T19:13:01.445Z,10.90
2018-10-15T19:15:30.363Z,11.30
2018-10-15T19:17:59.828Z,11.30
2018-10-15T19:20:29.259Z,11.20
2018-10-15T19:22:58.313Z,11.00
2018-10-15T19:25:28.638Z,11.00
2018-10-15T19:28:00.791Z,10.80
2018-10-15T19:30:31.335Z,10.80
2018-10-15T19:33:01.878Z,11.00
2018-10-15T19:35:31.091Z,11.10
2018-10-15T19:37:59.882Z,11.00
2018-10-15T19:40:29.273Z,10.60
2018-10-15T19:42:58.075Z,10.60
2018-10-15T19:45:27.329Z,10.20
2018-10-15T19:52:53.943Z,10.50
2018-10-15T19:55:22.667Z,10.30
2018-10-15T19:57:51.375Z,10.40
2018-10-15T20:02:50.738Z,10.60
2018-10-15T20:07:47.918Z,10.40
2018-10-15T20:10:17.392Z,10.40
2018-10-15T20:12:46.811Z,10.40
2018-10-15T20:15:15.466Z,10.30
2018-10-15T20:17:46.671Z,10.20
2018-10-15T20:20:16.274Z,10.20
2018-10-15T20:25:13.755Z,9.90
2018-10-15T20:30:13.030Z,9.80
2018-10-15T20:32:42.215Z,9.50
2018-10-15T20:35:11.960Z,9.90
2018-10-15T20:37:40.921Z,9.80
2018-10-15T20:40:10.937Z,9.40
2018-10-15T20:42:39.846Z,9.50
2018-10-15T20:45:08.920Z,9.60
2018-10-15T20:47:37.672Z,9.50
2018-10-15T20:50:07.747Z,9.60
2018-10-15T20:52:37.010Z,9.70
2018-10-15T20:57:34.968Z,9.90
2018-10-15T21:00:03.735Z,9.40
2018-10-15T21:02:32.392Z,9.40
2018-10-15T21:05:01.062Z,9.40
2018-10-15T21:07:29.641Z,9.50
2018-10-15T21:09:58.320Z,9.20
2018-10-15T21:12:26.978Z,9.60
2018-10-15T21:14:55.625Z,9.40
2018-10-15T21:17:24.226Z,9.10
2018-10-15T21:22:21.326Z,8.90
2018-10-15T21:27:18.405Z,8.90
2018-10-15T21:37:13.375Z,8.80
2018-10-15T21:39:41.968Z,8.70
2018-10-15T21:42:10.614Z,8.80
2018-10-15T21:44:39.173Z,8.60
2018-10-15T21:47:07.814Z,8.90
2018-10-15T21:49:36.555Z,8.70
2018-10-15T21:54:34.130Z,8.50
2018-10-15T21:57:02.773Z,7.90
2018-10-15T21:59:31.322Z,8.40
2018-10-15T22:01:59.876Z,8.90
2018-10-15T22:04:28.405Z,8.60
2018-10-15T22:06:57.095Z,8.20
2018-10-15T22:09:25.690Z,8.20
2018-10-15T22:11:54.250Z,8.10
2018-10-15T22:14:22.818Z,8.10
2018-10-15T22:16:51.441Z,7.90
2018-10-15T22:19:20.000Z,8.30
2018-10-15T22:21:48.572Z,8.20
2018-10-15T22:24:17.157Z,8.00
2018-10-15T22:26:45.722Z,8.40
2018-10-15T22:29:14.261Z,7.60
2018-10-15T22:34:11.002Z,7.70
2018-10-15T22:36:39.716Z,8.80
2018-10-15T22:39:10.838Z,7.90
2018-10-15T22:41:40.185Z,7.90
2018-10-15T22:44:08.969Z,7.90
2018-10-15T22:46:38.530Z,8.10
2018-10-15T22:49:07.548Z,7.90
2018-10-15T22:51:36.175Z,7.70
2018-10-15T22:54:04.951Z,7.40
2018-10-15T22:56:33.611Z,8.10
2018-10-15T22:59:02.231Z,8.20
2018-10-15T23:01:30.856Z,7.70
2018-10-15T23:03:59.447Z,7.70
2018-10-15T23:06:28.136Z,7.70
2018-10-15T23:08:56.694Z,7.50
2018-10-15T23:11:25.308Z,7.50
2018-10-15T23:14:00.367Z,7.40
2018-10-15T23:16:28.977Z,7.10
2018-10-15T23:18:57.544Z,7.20
2018-10-15T23:21:26.073Z,6.90
2018-10-15T23:23:54.616Z,7.10
2018-10-15T23:26:23.151Z,7.40
2018-10-15T23:28:51.716Z,7.10
2018-10-15T23:31:20.263Z,7.30
2018-10-15T23:33:48.825Z,7.30
2018-10-15T23:36:17.359Z,7.00
2018-10-15T23:38:45.950Z,7.00
2018-10-15T23:41:14.534Z,6.80
2018-10-15T23:43:43.095Z,6.90
2018-10-15T23:46:11.695Z,7.30
2018-10-15T23:48:40.293Z,7.30
2018-10-15T23:51:09.032Z,7.00
2018-10-15T23:53:37.559Z,7.10
2018-10-15T23:56:06.330Z,7.00
